Time;durP1;ratioP1;P1;durP2;ratioP2;P2;SDS_P1;SDS_P2;PMS_P1;PMS_P2;Temp;Humidity;BMP_temperature;BMP_pressure;BME280_temperature;BME280_humidity;BME280_pressure;Samples;Min_cycle;Max_cycle;Signal;HPM_P1;HPM_P2
2022/12/13 00:03:00;;;;;;;0.70;0.70;;;;;;;-7.09;100.00;101561.28;10478246;28;20058;-81
2022/12/13 00:08:02;;;;;;;4.43;2.13;;;;;;;-7.33;100.00;101559.56;10457910;28;20032;-80
2022/12/13 00:13:04;;;;;;;0.63;0.63;;;;;;;-7.31;100.00;101564.72;10475141;28;20128;-79
2022/12/13 00:18:05;;;;;;;0.35;0.35;;;;;;;-7.34;100.00;101558.69;10466505;28;20415;-79
2022/12/13 00:23:07;;;;;;;0.10;0.10;;;;;;;-7.39;100.00;101549.75;10488443;28;20139;-79
2022/12/13 00:28:09;;;;;;;0.75;0.75;;;;;;;-7.37;100.00;101550.81;10455821;28;20457;-80
2022/12/13 00:33:10;;;;;;;0.60;0.60;;;;;;;-7.29;100.00;101540.75;10473137;28;20076;-80
2022/12/13 00:38:12;;;;;;;0.13;0.13;;;;;;;-7.27;100.00;101547.69;10487966;28;20064;-80
2022/12/13 00:43:13;;;;;;;0.28;0.28;;;;;;;-7.35;100.00;101540.97;10496700;28;20499;-80
2022/12/13 00:48:15;;;;;;;3.20;1.08;;;;;;;-7.38;100.00;101540.66;10473569;28;20102;-80
2022/12/13 00:53:17;;;;;;;0.03;0.03;;;;;;;-7.41;100.00;101536.19;10477379;28;20435;-79
2022/12/13 00:58:18;;;;;;;0.22;0.22;;;;;;;-7.44;100.00;101528.34;10470571;28;20036;-79
2022/12/13 01:03:24;;;;;;;0.30;0.30;;;;;;;-7.41;100.00;101536.19;10485471;28;20041;-79
2022/12/13 01:08:27;;;;;;;0.43;0.43;;;;;;;-7.60;100.00;101537.44;10480337;28;20479;-80
2022/12/13 01:13:30;;;;;;;0.20;0.20;;;;;;;-7.68;100.00;101534.97;10479881;28;20044;-79
2022/12/13 01:18:32;;;;;;;0.45;0.45;;;;;;;-7.63;100.00;101539.63;10463649;28;20040;-80
2022/12/13 01:23:34;;;;;;;0.20;0.20;;;;;;;-7.74;100.00;101536.81;10465361;28;20044;-80
2022/12/13 01:28:36;;;;;;;0.60;0.60;;;;;;;-7.73;100.00;101528.59;10479253;28;20044;-81
2022/12/13 01:33:38;;;;;;;0.40;0.32;;;;;;;-7.69;100.00;101533.19;10497093;28;20080;-80
2022/12/13 01:38:41;;;;;;;2.05;1.75;;;;;;;-7.79;100.00;101532.94;10471158;28;20051;-80
2022/12/13 01:43:42;;;;;;;1.08;0.95;;;;;;;-7.70;100.00;101533.91;10476006;28;20075;-81
2022/12/13 01:48:58;;;;;;;0.10;0.10;;;;;;;-7.69;100.00;101535.69;10477057;28;20044;-80
2022/12/13 01:54:02;;;;;;;0.30;0.30;;;;;;;-7.89;100.00;101547.66;10478446;28;20044;-80
2022/12/13 01:59:06;;;;;;;0.52;0.52;;;;;;;-7.87;100.00;101536.22;10461721;28;20056;-80
2022/12/13 02:04:07;;;;;;;0.20;0.20;;;;;;;-7.85;100.00;101530.66;10478021;28;20074;-80
2022/12/13 02:09:10;;;;;;;0.65;0.55;;;;;;;-7.86;100.00;101530.50;10496507;28;20036;-80
2022/12/13 02:14:11;;;;;;;1.98;1.35;;;;;;;-7.86;100.00;101533.88;10476844;28;20048;-80
2022/12/13 02:19:13;;;;;;;0.15;0.15;;;;;;;-7.89;100.00;101536.03;10477818;28;20377;-79
2022/12/13 02:24:55;;;;;;;0.70;0.70;;;;;;;-7.91;100.00;101545.00;10494329;28;20093;-80
2022/12/13 02:30:09;;;;;;;0.10;0.10;;;;;;;-7.92;100.00;101543.22;10458600;28;20121;-80
2022/12/13 02:35:21;;;;;;;0.10;0.10;;;;;;;-8.00;100.00;101544.84;10478827;28;20080;-81
2022/12/13 02:40:32;;;;;;;0.52;0.52;;;;;;;-8.08;100.00;101527.22;10488990;28;20090;-80
2022/12/13 02:45:45;;;;;;;3.63;1.02;;;;;;;-8.19;100.00;101523.53;10456170;28;20098;-79
2022/12/13 02:50:49;;;;;;;0.13;0.13;;;;;;;-8.31;100.00;101513.97;10485224;28;20140;-80
2022/12/13 02:55:51;;;;;;;1.08;1.05;;;;;;;-8.21;100.00;101507.47;10476354;28;20492;-80
2022/12/13 03:01:19;;;;;;;0.10;0.10;;;;;;;-8.15;100.00;101509.06;10471678;28;20050;-79
2022/12/13 03:06:44;;;;;;;5.20;3.17;;;;;;;-8.23;100.00;101503.94;10474699;28;20071;-80
2022/12/13 03:17:20;;;;;;;4.18;2.17;;;;;;;-8.16;100.00;101503.91;10485177;28;20097;-80
2022/12/13 03:22:21;;;;;;;1.67;1.58;;;;;;;-8.23;100.00;101504.81;10474773;28;20052;-80
2022/12/13 03:27:23;;;;;;;2.22;1.20;;;;;;;-8.36;100.00;101502.56;10490504;28;20133;-80
2022/12/13 03:32:25;;;;;;;0.70;0.52;;;;;;;-8.38;100.00;101499.03;10490971;28;20484;-80
2022/12/13 03:37:27;;;;;;;2.47;1.40;;;;;;;-8.49;100.00;101495.34;10457790;28;20488;-80
2022/12/13 03:42:28;;;;;;;1.95;1.85;;;;;;;-8.44;100.00;101493.31;10475397;28;20076;-80
2022/12/13 03:47:30;;;;;;;1.52;1.27;;;;;;;-8.41;100.00;101498.69;10492289;28;20047;-80
2022/12/13 03:52:31;;;;;;;0.68;0.68;;;;;;;-8.46;100.00;101494.78;10474019;28;20082;-80
2022/12/13 03:57:33;;;;;;;0.50;0.50;;;;;;;-8.51;100.00;101484.31;10478133;28;20028;-80
2022/12/13 04:02:35;;;;;;;0.10;0.10;;;;;;;-8.40;100.00;101482.06;10474590;28;20044;-80
2022/12/13 04:07:37;;;;;;;0.20;0.20;;;;;;;-8.37;100.00;101485.78;10489483;28;20037;-79
2022/12/13 04:18:01;;;;;;;2.40;2.08;;;;;;;-8.41;100.00;101488.69;10483251;28;20043;-80
2022/12/13 04:23:03;;;;;;;2.45;2.25;;;;;;;-8.41;100.00;101485.31;10490527;28;20048;-80
2022/12/13 04:28:11;;;;;;;0.30;0.30;;;;;;;-8.43;100.00;101482.59;10489312;28;20076;-80
2022/12/13 04:33:23;;;;;;;0.45;0.45;;;;;;;-8.44;100.00;101485.81;10483702;28;20040;-80
2022/12/13 04:38:24;;;;;;;0.30;0.30;;;;;;;-8.49;100.00;101489.47;10476351;28;20044;-80
2022/12/13 04:43:26;;;;;;;0.38;0.38;;;;;;;-8.52;100.00;101489.09;10468744;28;20508;-80
2022/12/13 04:48:28;;;;;;;0.40;0.40;;;;;;;-8.57;100.00;101482.72;10485514;28;20079;-79
2022/12/13 04:53:31;;;;;;;0.10;0.10;;;;;;;-8.74;100.00;101479.22;10483942;28;20044;-80
2022/12/13 04:58:33;;;;;;;1.00;0.88;;;;;;;-8.83;100.00;101470.72;10468760;28;20040;-80
2022/12/13 05:03:35;;;;;;;0.90;0.90;;;;;;;-8.88;100.00;101475.19;10470974;28;20057;-80
2022/12/13 05:08:37;;;;;;;0.32;0.32;;;;;;;-8.84;100.00;101473.94;10488407;28;20083;-80
2022/12/13 05:13:38;;;;;;;0.45;0.35;;;;;;;-8.89;100.00;101475.00;10495840;28;20048;-80
2022/12/13 05:18:41;;;;;;;3.22;2.05;;;;;;;-8.93;100.00;101466.28;10484984;28;20407;-80
2022/12/13 05:23:42;;;;;;;10.32;3.20;;;;;;;-8.89;100.00;101467.50;10480342;28;20064;-80
2022/12/13 05:28:45;;;;;;;0.20;0.20;;;;;;;-8.82;100.00;101457.50;10462291;28;20036;-80
2022/12/13 05:33:46;;;;;;;13.35;2.13;;;;;;;-8.87;100.00;101456.09;10483785;28;20394;-81
2022/12/13 05:38:48;;;;;;;0.45;0.45;;;;;;;-8.80;100.00;101463.56;10465871;28;20127;-80
2022/12/13 05:43:50;;;;;;;6.70;0.63;;;;;;;-8.77;100.00;101466.41;10479598;28;20041;-80
2022/12/13 05:48:52;;;;;;;0.22;0.22;;;;;;;-8.80;100.00;101461.06;10476372;28;20045;-80
2022/12/13 05:53:53;;;;;;;1.08;0.90;;;;;;;-8.79;100.00;101460.34;10456205;28;20400;-80
2022/12/13 05:58:56;;;;;;;1.13;0.68;;;;;;;-8.90;100.00;101458.28;10482857;28;20041;-80
2022/12/13 06:03:57;;;;;;;0.25;0.25;;;;;;;-8.79;100.00;101462.84;10476324;28;20092;-81
2022/12/13 06:08:59;;;;;;;1.23;1.00;;;;;;;-8.86;100.00;101462.88;10488434;28;20049;-80
2022/12/13 06:14:02;;;;;;;8.77;3.80;;;;;;;-8.83;100.00;101463.22;10478195;28;20110;-80
2022/12/13 06:19:23;;;;;;;0.73;0.73;;;;;;;-8.86;100.00;101455.38;10470450;28;20155;-80
2022/12/13 06:24:26;;;;;;;0.20;0.20;;;;;;;-8.94;100.00;101455.41;10461253;28;20465;-80
2022/12/13 06:29:27;;;;;;;0.38;0.38;;;;;;;-9.03;100.00;101448.50;10479863;28;20056;-80
2022/12/13 06:34:34;;;;;;;1.35;1.02;;;;;;;-9.04;100.00;101441.72;10490371;28;20476;-80
2022/12/13 06:39:36;;;;;;;0.82;0.75;;;;;;;-9.05;100.00;101429.94;10495820;28;20124;-80
2022/12/13 06:44:40;;;;;;;0.65;0.40;;;;;;;-9.05;100.00;101427.47;10476126;28;20048;-80
2022/12/13 06:49:42;;;;;;;2.58;2.38;;;;;;;-9.00;100.00;101432.25;10483098;28;20040;-81
2022/12/13 06:54:45;;;;;;;0.40;0.40;;;;;;;-9.07;100.00;101429.78;10464095;28;20143;-81
2022/12/13 06:59:47;;;;;;;0.57;0.57;;;;;;;-9.11;100.00;101430.16;10490048;28;20053;-80
2022/12/13 07:04:49;;;;;;;4.82;1.25;;;;;;;-9.12;100.00;101425.91;10462824;28;20127;-81
2022/12/13 07:09:52;;;;;;;0.43;0.43;;;;;;;-9.14;100.00;101439.81;10479587;28;20064;-81
2022/12/13 07:14:54;;;;;;;3.22;1.73;;;;;;;-9.21;100.00;101439.84;10462440;28;20041;-81
2022/12/13 07:19:56;;;;;;;1.20;1.17;;;;;;;-9.16;100.00;101438.72;10503224;28;20040;-81
2022/12/13 07:25:03;;;;;;;0.50;0.50;;;;;;;-9.20;100.00;101436.63;10476136;28;20083;-81
2022/12/13 07:30:05;;;;;;;1.35;1.27;;;;;;;-9.14;100.00;101437.31;10476230;28;20465;-81
2022/12/13 07:35:07;;;;;;;0.60;0.60;;;;;;;-9.02;100.00;101428.69;10489386;28;20063;-81
2022/12/13 07:40:09;;;;;;;0.45;0.45;;;;;;;-9.03;100.00;101431.91;10461562;28;20084;-81
2022/12/13 07:45:11;;;;;;;1.05;0.98;;;;;;;-9.26;100.00;101437.69;10478348;28;20044;-80
2022/12/13 07:50:13;;;;;;;0.70;0.35;;;;;;;-9.33;100.00;101444.31;10501780;28;20044;-78
2022/12/13 07:55:26;;;;;;;2.00;1.45;;;;;;;-9.10;100.00;101444.41;10489133;28;20045;-79
2022/12/13 08:00:36;;;;;;;0.52;0.52;;;;;;;-9.06;100.00;101444.06;10481975;28;20569;-78
2022/12/13 08:05:38;;;;;;;1.85;1.50;;;;;;;-9.05;100.00;101452.44;10495876;28;20052;-79
2022/12/13 08:10:40;;;;;;;0.47;0.47;;;;;;;-9.15;100.00;101456.38;10497059;28;20051;-78
2022/12/13 08:15:45;;;;;;;0.10;0.10;;;;;;;-8.95;100.00;101455.25;10515225;28;20064;-78
2022/12/13 08:20:58;;;;;;;1.15;1.05;;;;;;;-8.81;100.00;101455.19;10500033;28;20045;-79
2022/12/13 08:26:00;;;;;;;1.92;1.65;;;;;;;-8.68;100.00;101462.44;10502766;28;20082;-79
2022/12/13 08:31:10;;;;;;;0.50;0.50;;;;;;;-8.51;100.00;101470.91;10503500;28;20069;-78
2022/12/13 08:36:15;;;;;;;0.43;0.43;;;;;;;-8.32;100.00;101474.72;10505121;28;20048;-79
2022/12/13 08:41:16;;;;;;;1.20;1.17;;;;;;;-8.16;100.00;101476.41;10489767;28;20052;-79
2022/12/13 08:46:18;;;;;;;0.10;0.10;;;;;;;-7.87;100.00;101481.19;10507478;28;20079;-78
2022/12/13 08:51:24;;;;;;;0.82;0.82;;;;;;;-7.75;100.00;101487.50;10506601;28;20064;-79
2022/12/13 08:56:34;;;;;;;0.82;0.70;;;;;;;-7.45;100.00;101496.53;10522276;28;20036;-79
2022/12/13 09:01:36;;;;;;;1.30;1.23;;;;;;;-7.28;100.00;101487.44;10508804;28;20048;-79
2022/12/13 09:06:41;;;;;;;0.20;0.20;;;;;;;-7.09;100.00;101498.69;10495838;28;20052;-79
2022/12/13 09:11:42;;;;;;;0.52;0.52;;;;;;;-6.92;100.00;101499.56;10495690;28;20059;-79
2022/12/13 09:16:44;;;;;;;0.80;0.80;;;;;;;-6.68;100.00;101501.25;10494490;28;20045;-79
2022/12/13 09:21:51;;;;;;;0.57;0.52;;;;;;;-6.45;100.00;101497.72;10493484;28;20084;-79
2022/12/13 09:27:05;;;;;;;2.15;1.95;;;;;;;-6.19;100.00;101492.91;10508341;28;20062;-79
2022/12/13 09:32:10;;;;;;;1.25;1.17;;;;;;;-5.91;100.00;101508.22;10493787;28;20047;-79
2022/12/13 09:37:13;;;;;;;0.82;0.82;;;;;;;-5.70;100.00;101513.66;10491837;28;20051;-80
2022/12/13 09:42:25;;;;;;;;;;;;;;;-5.50;100.00;101515.63;10492073;28;20102;-79
2022/12/13 09:47:43;;;;;;;2.95;2.70;;;;;;;-5.26;100.00;101522.22;10484564;28;19921;-79
2022/12/13 09:52:47;;;;;;;0.17;0.15;;;;;;;-5.15;100.00;101514.09;10502647;28;20090;-80
2022/12/13 09:57:51;;;;;;;0.28;0.28;;;;;;;-4.93;100.00;101521.25;10504245;28;20041;-79
2022/12/13 10:02:59;;;;;;;0.65;0.65;;;;;;;-4.76;100.00;101522.88;10502237;28;20106;-79
2022/12/13 10:08:07;;;;;;;0.40;0.40;;;;;;;-4.53;100.00;101524.22;10490009;28;20045;-79
2022/12/13 10:13:19;;;;;;;0.15;0.15;;;;;;;-4.33;100.00;101528.66;10484080;28;20443;-81
2022/12/13 10:18:32;;;;;;;0.80;0.80;;;;;;;-4.12;100.00;101513.81;10484113;28;20053;-80
2022/12/13 10:23:34;;;;;;;0.30;0.30;;;;;;;-4.01;100.00;101498.13;10483186;28;20075;-79
2022/12/13 10:29:04;;;;;;;1.15;1.05;;;;;;;-3.89;100.00;101494.22;10483634;28;20480;-80
2022/12/13 10:34:15;;;;;;;0.30;0.30;;;;;;;-3.58;100.00;101492.03;10482416;28;20049;-80
2022/12/13 10:39:39;;;;;;;0.75;0.70;;;;;;;-3.14;100.00;101471.63;10484880;28;20044;-84
2022/12/13 10:44:41;;;;;;;0.20;0.20;;;;;;;-2.59;100.00;101474.75;10491758;28;20050;-84
2022/12/13 10:49:47;;;;;;;1.13;1.02;;;;;;;-2.11;100.00;101467.16;10460288;28;20086;-84
2022/12/13 10:54:50;;;;;;;4.20;3.10;;;;;;;-2.06;100.00;101457.47;10457198;28;21529;-84
2022/12/13 10:59:51;;;;;;;0.20;0.20;;;;;;;-1.78;100.00;101434.53;10477709;28;20072;-84
2022/12/13 11:04:53;;;;;;;1.73;1.50;;;;;;;-1.51;100.00;101418.28;10482430;28;20052;-84
2022/12/13 11:09:56;;;;;;;0.22;0.22;;;;;;;-1.58;100.00;101399.94;10472188;28;20063;-84
2022/12/13 11:15:07;;;;;;;0.63;0.43;;;;;;;-1.52;100.00;101365.97;10465991;28;20049;-84
2022/12/13 11:20:36;;;;;;;1.75;1.55;;;;;;;-1.14;100.00;101293.97;10459503;28;20048;-84
2022/12/13 11:25:40;;;;;;;0.55;0.50;;;;;;;-1.95;100.00;101267.31;10469791;28;20062;-84
2022/12/13 11:31:09;;;;;;;0.20;0.20;;;;;;;-1.99;100.00;101265.31;10460039;28;20037;-84
2022/12/13 11:36:54;;;;;;;1.55;1.35;;;;;;;-1.85;100.00;101248.75;10479915;28;20078;-84
2022/12/13 11:42:15;;;;;;;0.85;0.80;;;;;;;-1.63;100.00;101230.28;10481620;28;20040;-84
2022/12/13 11:47:36;;;;;;;2.92;1.45;;;;;;;-1.51;100.00;101225.31;10478178;28;20135;-83
2022/12/13 11:52:43;;;;;;;0.22;0.22;;;;;;;-1.16;100.00;101210.41;10465882;28;20052;-83
2022/12/13 11:57:45;;;;;;;0.35;0.35;;;;;;;-1.15;100.00;101206.22;10479698;28;20083;-83
2022/12/13 12:02:55;;;;;;;1.73;1.40;;;;;;;-1.52;100.00;101199.19;10480434;28;20049;-83
2022/12/13 12:08:04;;;;;;;;;;;;;;;-1.61;100.00;101196.81;10480738;28;20033;-83
2022/12/13 12:14:11;;;;;;;0.45;0.45;;;;;;;-1.72;100.00;101191.66;10479964;28;20425;-83
2022/12/13 12:19:16;;;;;;;0.55;0.55;;;;;;;-1.78;100.00;101194.56;10467281;28;20094;-83
2022/12/13 12:24:39;;;;;;;0.60;0.60;;;;;;;-0.98;100.00;101190.72;10479314;28;20056;-83
2022/12/13 12:29:54;;;;;;;1.77;1.30;;;;;;;-0.51;100.00;101167.25;10479476;28;20051;-84
2022/12/13 12:35:12;;;;;;;0.80;0.80;;;;;;;-0.56;100.00;101160.09;10476556;28;20059;-84
2022/12/13 12:40:32;;;;;;;1.08;1.02;;;;;;;-0.47;100.00;101150.66;10494688;28;20487;-84
2022/12/13 12:46:13;;;;;;;5.25;1.67;;;;;;;-0.26;100.00;101140.38;10484014;28;20122;-85
2022/12/13 12:51:27;;;;;;;0.68;0.68;;;;;;;-0.32;100.00;101136.59;10461016;28;20044;-85
2022/12/13 12:56:43;;;;;;;0.60;0.60;;;;;;;-0.96;100.00;101138.63;10468584;28;20095;-85
2022/12/13 13:02:07;;;;;;;0.80;0.80;;;;;;;-1.66;100.00;101149.19;10491377;28;20044;-84
2022/12/13 13:07:27;;;;;;;1.92;1.33;;;;;;;-1.43;100.00;101148.47;10513537;28;20048;-85
2022/12/13 13:12:40;;;;;;;0.40;0.40;;;;;;;-1.67;100.00;101153.34;10472843;28;20484;-85
2022/12/13 13:17:45;;;;;;;1.23;1.13;;;;;;;-1.83;100.00;101138.63;10459327;28;20056;-85
2022/12/13 13:22:46;;;;;;;0.43;0.43;;;;;;;-1.95;100.00;101145.25;10471516;28;20045;-84
2022/12/13 13:28:16;;;;;;;1.80;0.77;;;;;;;-1.88;100.00;101136.50;10480128;28;20114;-86
2022/12/13 13:33:50;;;;;;;2.75;1.75;;;;;;;-1.94;100.00;101134.38;10484572;28;20082;-86
2022/12/13 13:38:53;;;;;;;0.20;0.20;;;;;;;-2.21;100.00;101151.59;10473712;28;20056;-85
2022/12/13 13:43:54;;;;;;;0.30;0.30;;;;;;;-2.21;100.00;101145.66;10484814;28;20098;-85
2022/12/13 13:49:07;;;;;;;0.40;0.40;;;;;;;-2.37;100.00;101146.94;10482013;28;20044;-85
2022/12/13 13:54:15;;;;;;;0.47;0.35;;;;;;;-2.61;100.00;101149.22;10481621;28;20049;-85
2022/12/13 13:59:30;;;;;;;1.35;1.25;;;;;;;-2.51;100.00;101144.94;10482354;28;20040;-85
2022/12/13 14:04:41;;;;;;;0.00;0.00;;;;;;;-2.62;100.00;101149.97;10472528;28;20558;-84
2022/12/13 14:10:03;;;;;;;0.03;0.03;;;;;;;-3.36;100.00;101156.38;10498424;28;20029;-85
2022/12/13 14:15:27;;;;;;;0.30;0.30;;;;;;;-3.40;100.00;101164.44;10479408;28;20048;-84
2022/12/13 14:20:41;;;;;;;0.15;0.15;;;;;;;-3.11;100.00;101158.47;10469054;28;20056;-84
2022/12/13 14:26:11;;;;;;;0.90;0.60;;;;;;;-3.25;100.00;101160.72;10465357;28;20380;-85
2022/12/13 14:31:23;;;;;;;4.78;1.45;;;;;;;-3.29;100.00;101178.81;10477062;28;20048;-84
2022/12/13 14:36:33;;;;;;;0.40;0.40;;;;;;;-3.59;100.00;101182.09;10478438;28;20487;-84
2022/12/13 14:41:48;;;;;;;4.00;1.42;;;;;;;-3.84;100.00;101178.31;10478289;28;20044;-85
2022/12/13 14:47:05;;;;;;;0.45;0.40;;;;;;;-3.78;100.00;101187.16;10465588;28;20591;-84
2022/12/13 14:52:24;;;;;;;0.20;0.20;;;;;;;-3.83;100.00;101197.69;10451135;28;20037;-85
2022/12/13 14:57:31;;;;;;;0.10;0.10;;;;;;;-3.79;100.00;101187.91;10470769;28;20060;-84
2022/12/13 15:02:32;;;;;;;0.60;0.60;;;;;;;-3.84;100.00;101198.47;10475724;28;20050;-83
2022/12/13 15:07:37;;;;;;;0.20;0.20;;;;;;;-3.95;100.00;101179.00;10477950;28;20051;-83
2022/12/13 15:12:42;;;;;;;0.20;0.20;;;;;;;-4.01;100.00;101179.31;10457524;28;20078;-83
2022/12/13 15:17:44;;;;;;;0.80;0.80;;;;;;;-4.02;100.00;101179.19;10476064;28;20082;-83
2022/12/13 15:23:04;;;;;;;0.98;0.98;;;;;;;-4.12;100.00;101177.50;10482873;28;20142;-84
2022/12/13 15:28:16;;;;;;;0.00;0.00;;;;;;;-4.13;100.00;101183.28;10486786;28;20037;-83
2022/12/13 15:33:27;;;;;;;0.65;0.65;;;;;;;-4.26;100.00;101188.84;10484370;28;20059;-83
2022/12/13 15:38:39;;;;;;;0.20;0.20;;;;;;;-4.35;100.00;101177.94;10465567;28;20047;-82
2022/12/13 15:43:44;;;;;;;0.40;0.40;;;;;;;-4.44;100.00;101172.09;10480329;28;20040;-83
2022/12/13 15:48:47;;;;;;;0.60;0.60;;;;;;;-4.59;100.00;101167.47;10474638;28;20048;-83
2022/12/13 15:54:17;;;;;;;0.28;0.28;;;;;;;-4.78;100.00;101165.78;10492433;28;20408;-83
2022/12/13 15:59:29;;;;;;;1.65;1.08;;;;;;;-4.90;100.00;101154.59;10475662;28;20514;-82
2022/12/13 16:04:32;;;;;;;0.00;0.00;;;;;;;-4.92;100.00;101156.09;10470171;28;20044;-82
2022/12/13 16:09:36;;;;;;;0.00;0.00;;;;;;;-4.92;100.00;101160.25;10467490;28;20052;-82
2022/12/13 16:14:43;;;;;;;0.10;0.10;;;;;;;-5.19;100.00;101164.47;10495776;28;20067;-83
2022/12/13 16:19:51;;;;;;;0.38;0.38;;;;;;;-5.40;100.00;101166.75;10483172;28;20036;-82
2022/12/13 16:24:55;;;;;;;0.47;0.47;;;;;;;-5.43;100.00;101166.44;10483166;28;20052;-82
2022/12/13 16:29:57;;;;;;;0.20;0.20;;;;;;;-5.40;100.00;101170.91;10482650;28;20044;-83
2022/12/13 16:34:58;;;;;;;0.00;0.00;;;;;;;-5.38;100.00;101162.75;10473452;28;20058;-82
2022/12/13 16:40:21;;;;;;;1.15;0.35;;;;;;;-5.42;100.00;101165.72;10475679;28;20048;-83
2022/12/13 16:45:24;;;;;;;0.10;0.10;;;;;;;-5.38;100.00;101161.84;10514061;28;20044;-83
2022/12/13 16:50:48;;;;;;;0.20;0.20;;;;;;;-5.39;100.00;101170.13;10505733;28;20140;-82
2022/12/13 16:55:58;;;;;;;0.00;0.00;;;;;;;-5.57;100.00;101180.22;10481768;28;20040;-83
2022/12/13 17:01:01;;;;;;;0.30;0.30;;;;;;;-5.60;100.00;101175.81;10480837;28;20037;-83
2022/12/13 17:06:04;;;;;;;0.10;0.10;;;;;;;-5.48;100.00;101163.53;10488678;28;20044;-82
2022/12/13 17:11:08;;;;;;;0.45;0.45;;;;;;;-5.54;100.00;101160.41;10510186;28;20126;-82
2022/12/13 17:16:18;;;;;;;0.22;0.22;;;;;;;-5.40;100.00;101155.81;10498467;28;20063;-83
2022/12/13 17:21:24;;;;;;;0.30;0.30;;;;;;;-5.39;100.00;101155.06;10480967;28;20055;-82
2022/12/13 17:26:27;;;;;;;0.03;0.03;;;;;;;-5.42;100.00;101155.66;10466937;28;20090;-82
2022/12/13 17:31:29;;;;;;;0.13;0.13;;;;;;;-5.32;100.00;101153.28;10480829;28;20102;-82
2022/12/13 17:36:37;;;;;;;1.30;1.20;;;;;;;-5.27;100.00;101159.59;10494397;28;20048;-82
2022/12/13 17:41:39;;;;;;;0.00;0.00;;;;;;;-5.23;100.00;101165.81;10488666;28;20467;-83
2022/12/13 17:46:40;;;;;;;0.57;0.57;;;;;;;-5.23;100.00;101165.81;10495568;28;20047;-83
2022/12/13 17:51:54;;;;;;;0.25;0.25;;;;;;;-5.18;100.00;101164.63;10484930;28;20506;-83
2022/12/13 17:56:56;;;;;;;0.55;0.55;;;;;;;-5.13;100.00;101163.41;10492486;28;20048;-83
2022/12/13 18:01:58;;;;;;;0.22;0.22;;;;;;;-5.15;100.00;101151.47;10478538;28;20041;-82
2022/12/13 18:06:59;;;;;;;0.80;0.80;;;;;;;-5.12;100.00;101142.59;10473514;28;20102;-82
2022/12/13 18:12:01;;;;;;;0.20;0.20;;;;;;;-5.06;100.00;101141.38;10460028;28;20047;-82
2022/12/13 18:17:03;;;;;;;0.47;0.47;;;;;;;-5.03;100.00;101139.16;10478045;28;20434;-82
2022/12/13 18:22:05;;;;;;;0.20;0.20;;;;;;;-4.93;100.00;101141.75;10484220;28;20497;-83
2022/12/13 18:27:06;;;;;;;1.65;0.88;;;;;;;-4.92;100.00;101141.00;10452530;28;20131;-82
2022/12/13 18:32:09;;;;;;;0.57;0.57;;;;;;;-4.93;100.00;101139.22;10458944;28;20068;-82
2022/12/13 18:37:10;;;;;;;0.00;0.00;;;;;;;-4.94;100.00;101135.84;10484644;28;20040;-82
2022/12/13 18:42:12;;;;;;;0.35;0.35;;;;;;;-4.92;100.00;101125.06;10479958;28;20049;-82
2022/12/13 18:47:14;;;;;;;1.25;1.13;;;;;;;-4.92;100.00;101128.44;10498621;28;20048;-83
2022/12/13 18:52:22;;;;;;;0.75;0.75;;;;;;;-4.95;100.00;101111.47;10487452;28;20128;-82
2022/12/13 18:57:24;;;;;;;0.17;0.17;;;;;;;-5.00;100.00;101107.66;10450931;28;20504;-82
2022/12/13 19:02:25;;;;;;;0.28;0.28;;;;;;;-5.14;100.00;101093.81;10460520;28;20075;-82
2022/12/13 19:07:35;;;;;;;3.30;1.77;;;;;;;-5.23;100.00;101089.56;10471832;28;20114;-82
2022/12/13 19:12:36;;;;;;;0.52;0.52;;;;;;;-5.23;100.00;101087.06;10464512;28;20043;-82
2022/12/13 19:17:38;;;;;;;0.00;0.00;;;;;;;-5.42;100.00;101091.28;10458601;28;20041;-83
2022/12/13 19:22:40;;;;;;;0.00;0.00;;;;;;;-5.34;100.00;101093.63;10443878;28;20127;-82
2022/12/13 19:27:45;;;;;;;0.88;0.80;;;;;;;-5.36;100.00;101097.59;10464057;28;20060;-82
2022/12/13 19:32:47;;;;;;;0.03;0.03;;;;;;;-5.45;100.00;101095.13;10461962;28;20052;-82
2022/12/13 19:37:48;;;;;;;0.30;0.30;;;;;;;-5.48;100.00;101085.69;10466919;28;20439;-83
2022/12/13 19:42:50;;;;;;;0.05;0.05;;;;;;;-5.47;100.00;101087.44;10452909;28;20045;-81
2022/12/13 19:47:51;;;;;;;0.30;0.30;;;;;;;-5.55;100.00;101067.38;10474676;28;20052;-82
2022/12/13 19:52:53;;;;;;;0.00;0.00;;;;;;;-5.58;100.00;101073.00;10485108;28;20045;-82
2022/12/13 19:57:55;;;;;;;2.42;1.55;;;;;;;-5.60;100.00;101065.34;10487796;28;20044;-82
2022/12/13 20:02:57;;;;;;;0.10;0.10;;;;;;;-5.57;100.00;101064.75;10453580;28;20049;-82
2022/12/13 20:07:59;;;;;;;0.00;0.00;;;;;;;-5.72;100.00;101045.75;10483782;28;20052;-82
2022/12/13 20:13:01;;;;;;;0.32;0.32;;;;;;;-5.76;100.00;101057.13;10471617;28;20491;-83
2022/12/13 20:18:03;;;;;;;0.20;0.20;;;;;;;-5.69;100.00;101033.47;10481397;28;20052;-82
2022/12/13 20:23:04;;;;;;;0.35;0.35;;;;;;;-5.65;100.00;101028.00;10478845;28;20053;-83
2022/12/13 20:28:06;;;;;;;0.77;0.77;;;;;;;-5.55;100.00;101028.13;10451066;28;20041;-82
2022/12/13 20:33:16;;;;;;;1.33;1.23;;;;;;;-5.57;100.00;101027.97;10463609;28;20055;-82
2022/12/13 20:38:17;;;;;;;1.77;1.08;;;;;;;-5.60;100.00;101015.13;10495981;28;20127;-83
2022/12/13 20:43:19;;;;;;;0.10;0.10;;;;;;;-5.76;100.00;101002.78;10510250;28;20040;-82
2022/12/13 20:48:21;;;;;;;0.82;0.82;;;;;;;-5.76;100.00;101006.94;10483339;28;20044;-83
2022/12/13 20:53:22;;;;;;;0.20;0.20;;;;;;;-5.81;100.00;101004.00;10452505;28;20102;-82
2022/12/13 20:58:26;;;;;;;2.08;1.55;;;;;;;-5.91;100.00;100991.31;10480650;28;20499;-83
2022/12/13 21:03:27;;;;;;;0.65;0.38;;;;;;;-5.87;100.00;100998.41;10476920;28;20056;-82
2022/12/13 21:13:59;;;;;;;0.17;0.17;;;;;;;-5.71;100.00;100987.28;10487927;28;20416;-82
2022/12/13 21:19:11;;;;;;;0.52;0.52;;;;;;;-5.72;100.00;100983.00;10487461;28;20092;-82
2022/12/13 21:24:14;;;;;;;0.20;0.20;;;;;;;-5.46;100.00;100978.72;10480623;28;20053;-81
2022/12/13 21:29:17;;;;;;;0.20;0.20;;;;;;;-5.49;100.00;100973.44;10452051;28;20557;-81
2022/12/13 21:34:20;;;;;;;0.47;0.47;;;;;;;-5.26;100.00;100972.13;10464327;28;20052;-82
2022/12/13 21:39:28;;;;;;;0.05;0.05;;;;;;;-5.31;100.00;100948.22;10476610;28;20033;-84
2022/12/13 21:44:29;;;;;;;0.32;0.32;;;;;;;-5.31;100.00;100939.06;10483620;28;20041;-82
2022/12/13 21:49:31;;;;;;;0.32;0.32;;;;;;;-5.29;100.00;100931.66;10466942;28;20476;-83
2022/12/13 21:54:33;;;;;;;0.20;0.20;;;;;;;-5.26;100.00;100926.94;10472505;28;20049;-83
2022/12/13 21:59:34;;;;;;;0.20;0.20;;;;;;;-5.30;100.00;100918.22;10468662;28;20515;-82
2022/12/13 22:04:37;;;;;;;0.52;0.52;;;;;;;-5.31;100.00;100913.94;10465096;28;20044;-82
2022/12/13 22:09:39;;;;;;;0.30;0.30;;;;;;;-5.18;100.00;100910.91;10492113;28;20045;-81
2022/12/13 22:14:41;;;;;;;0.38;0.38;;;;;;;-5.07;100.00;100899.31;10479959;28;20044;-79
2022/12/13 22:19:42;;;;;;;0.68;0.52;;;;;;;-4.98;100.00;100889.16;10497261;28;20045;-80
2022/12/13 22:24:49;;;;;;;0.22;0.22;;;;;;;-5.01;100.00;100872.19;10486615;28;20478;-79
2022/12/13 22:29:56;;;;;;;0.43;0.43;;;;;;;-5.00;100.00;100880.59;10487610;28;20060;-79
2022/12/13 22:34:58;;;;;;;0.35;0.35;;;;;;;-4.93;100.00;100895.47;10514204;28;20488;-78
2022/12/13 22:39:59;;;;;;;0.65;0.65;;;;;;;-4.92;100.00;100889.69;10501182;28;20051;-78
2022/12/13 22:45:01;;;;;;;0.10;0.10;;;;;;;-4.99;100.00;100877.34;10503414;28;20389;-79
2022/12/13 22:50:03;;;;;;;0.20;0.20;;;;;;;-4.94;100.00;100850.97;10517886;28;20438;-78
2022/12/13 22:55:05;;;;;;;0.03;0.03;;;;;;;-4.92;100.00;100844.47;10503802;28;20048;-80
2022/12/13 23:00:09;;;;;;;0.00;0.00;;;;;;;-4.90;100.00;100840.47;10505636;28;20049;-78
2022/12/13 23:05:13;;;;;;;0.00;0.00;;;;;;;-4.82;100.00;100831.97;10507511;28;20111;-77
2022/12/13 23:15:38;;;;;;;0.20;0.20;;;;;;;-4.85;100.00;100825.78;10531064;28;20047;-78
2022/12/13 23:20:39;;;;;;;0.00;0.00;;;;;;;-4.83;100.00;100819.25;10527586;28;20480;-78
2022/12/13 23:25:41;;;;;;;0.20;0.20;;;;;;;-4.89;100.00;100807.06;10507699;28;20427;-79
2022/12/13 23:30:42;;;;;;;0.10;0.10;;;;;;;-4.86;100.00;100803.91;10486274;28;20052;-79
2022/12/13 23:35:44;;;;;;;0.17;0.17;;;;;;;-4.86;100.00;100796.38;10508290;28;20055;-78